This demonstration page uses our WeatherBlox Daily Observations layout. Learn more.

41.55636, -103.73856

Hourly Observations for June 15, 2020

Temp ( °F °C ) Dew Point ( °F °C ) Humidity (%) Winds ( mph kmh ) Pressure ( in mb ) Visibility ( mi km ) Precip ( " mm )
12:58 am 00:58 Mostly Clear 84 29 40 4.4 21 21 Calm 29.7 1006 10 16.0934 0 0
1:58 am 01:58 Clear 82 27.7 43 6.1 25 25 NW 5 7 29.72 1006 10 16.0934 0 0
2:58 am 02:58 Mostly Cloudy 76 24.7 37 2.5 24 24 Calm 29.72 1006 10 16.0934 0 0
3:58 am 03:58 Clear 74 23.2 36 2.1 25 25 SW 6 9 29.74 1007 10 16.0934 0 0
4:58 am 04:58 Clear 63 17.4 39 3.8 41 41 SSW 7 11 29.77 1008 10 16.0934 0 0
5:58 am 05:58 Clear 64 17.8 36 2.4 36 36 SSW 6 9 29.78 1009 10 16.0934 0 0
6:58 am 06:58 Mostly Clear 62 16.6 40 4.3 44 44 SW 3 6 29.8 1009 10 16.0934 0 0
7:58 am 07:58 Clear 60 15.3 40 4.5 49 49 WSW 8 13 29.82 1010 10 16.0934 0 0
8:58 am 08:58 Clear 55 12.8 36 2.3 49 49 W 8 13 29.85 1011 10 16.0934 0 0
9:58 am 09:58 Clear 56 13.3 33 0.6 42 42 WSW 8 13 29.87 1012 10 16.0934 0 0
10:58 am 10:58 Clear 55 12.6 32 0 42 42 W 6 9 29.9 1013 10 16.0934 0 0
11:58 am 11:58 Sunny 56 13.3 31 -0.6 39 39 W 5 7 29.93 1014 10 16.0934 0 0
12:58 pm 12:58 Sunny 60 15.4 36 2.4 42 42 W 6 9 29.95 1014 10 16.0934 0 0
4:58 pm 16:58 Sunny 74 23.6 34 1.3 23 23 Calm 29.85 1011 10 16.09 0 0
5:58 pm 17:58 Sunny 76 24.6 32 -0.2 19 19 ENE 8 13 29.82 1010 10 16.09 0 0
6:58 pm 18:58 Sunny 79 26 36 2.2 21 21 E 6 9 29.79 1009 10 16.09 0 0
7:58 pm 19:58 Sunny 81 27.2 37 2.7 21 21 E 9 15 29.77 1008 10 16.09 0 0
8:58 pm 20:58 Sunny 85 29.3 38 3.3 19 19 ESE 13 21 29.72 1006 10 16.09 0 0
9:58 pm 21:58 Sunny 87 30.3 33 0.5 15 15 ESE 14 22 29.68 1005 10 16.09 0 0
10:58 pm 22:58 Sunny 86 29.9 31 -0.5 14 14 SE 15 24 29.89 1012 10 16.0934 0 0
11:59 pm 23:59 Sunny 84 29.1 38 3.6 20 20 ESE 10 17 29.88 1012 10 16.0934 0 0

Powered by AerisWeather